Time;durP1;ratioP1;P1;durP2;ratioP2;P2;SDS_P1;SDS_P2;PMS_P1;PMS_P2;Temp;Humidity;BMP_temperature;BMP_pressure;BME280_temperature;BME280_humidity;BME280_pressure;Samples;Min_cycle;Max_cycle;Signal;HPM_P1;HPM_P2
2023/09/14 00:00:09;;;;;;;2.00;1.43;;;;;;;;;;5070659;28;20453;-65
2023/09/14 00:02:36;;;;;;;5.87;2.50;;;;;;;;;;5070313;28;20538;-65
2023/09/14 00:05:05;;;;;;;2.70;1.67;;;;;;;;;;5071282;28;20485;-65
2023/09/14 00:07:33;;;;;;;4.60;2.97;;;;;;;;;;5071202;28;20438;-65
2023/09/14 00:10:00;;;;;;;2.93;1.70;;;;;;;;;;5070435;28;20473;-66
2023/09/14 00:12:27;;;;;;;3.57;1.90;;;;;;;;;;5070702;28;20484;-65
2023/09/14 00:14:54;;;;;;;3.60;2.20;;;;;;;;;;5070967;28;20919;-66
2023/09/14 00:17:21;;;;;;;3.70;1.93;;;;;;;;;;5057565;28;20437;-66
2023/09/14 00:19:48;;;;;;;5.37;2.67;;;;;;;;;;5071463;28;20965;-66
2023/09/14 00:22:16;;;;;;;3.80;2.27;;;;;;;;;;5057660;28;20468;-66
2023/09/14 00:24:43;;;;;;;3.70;2.10;;;;;;;;;;5075621;28;20465;-66
2023/09/14 00:27:10;;;;;;;6.00;2.17;;;;;;;;;;5075559;28;20441;-66
2023/09/14 00:29:37;;;;;;;3.50;1.80;;;;;;;;;;5074737;28;20983;-66
2023/09/14 00:32:05;;;;;;;2.63;1.43;;;;;;;;;;5075040;28;20458;-66
2023/09/14 00:34:32;;;;;;;3.20;1.97;;;;;;;;;;5075065;28;20490;-66
2023/09/14 00:36:59;;;;;;;4.17;2.70;;;;;;;;;;5074943;28;20448;-65
2023/09/14 00:39:27;;;;;;;3.80;2.33;;;;;;;;;;5074190;28;20441;-66
2023/09/14 00:41:54;;;;;;;3.10;2.10;;;;;;;;;;5074783;28;20559;-65
2023/09/14 00:44:21;;;;;;;4.00;2.47;;;;;;;;;;5073843;28;20815;-66
2023/09/14 00:46:51;;;;;;;3.30;1.77;;;;;;;;;;5073394;28;20946;-66
2023/09/14 00:49:18;;;;;;;4.60;2.63;;;;;;;;;;5074064;28;20441;-65
2023/09/14 00:51:45;;;;;;;4.20;2.53;;;;;;;;;;5072035;28;20453;-66
2023/09/14 00:54:12;;;;;;;3.90;2.27;;;;;;;;;;5060877;28;20936;-66
2023/09/14 00:56:41;;;;;;;5.80;2.40;;;;;;;;;;5073648;28;20519;-66
2023/09/14 00:59:08;;;;;;;4.00;2.10;;;;;;;;;;5074362;28;20511;-65
2023/09/14 01:01:35;;;;;;;4.53;2.33;;;;;;;;;;5069210;28;20484;-65
2023/09/14 01:04:02;;;;;;;4.77;2.10;;;;;;;;;;5073119;28;20483;-66
2023/09/14 01:06:29;;;;;;;3.60;2.63;;;;;;;;;;5073994;28;20559;-66
2023/09/14 01:08:57;;;;;;;3.73;2.60;;;;;;;;;;5073958;28;20445;-65
2023/09/14 01:11:24;;;;;;;5.33;2.40;;;;;;;;;;5060582;28;20987;-66
2023/09/14 01:13:54;;;;;;;8.30;3.80;;;;;;;;;;5073931;28;20441;-65
2023/09/14 01:16:25;;;;;;;3.37;1.70;;;;;;;;;;5073291;28;20601;-65
2023/09/14 01:18:54;;;;;;;4.23;2.03;;;;;;;;;;5073496;28;20433;-65
2023/09/14 01:21:28;;;;;;;3.60;2.17;;;;;;;;;;5072940;28;20470;-65
2023/09/14 01:23:56;;;;;;;4.63;2.67;;;;;;;;;;5073650;28;20818;-66
2023/09/14 01:26:26;;;;;;;6.23;2.57;;;;;;;;;;5073520;28;20441;-66
2023/09/14 01:28:53;;;;;;;4.13;2.53;;;;;;;;;;5073741;28;20449;-66
2023/09/14 01:31:22;;;;;;;4.27;2.57;;;;;;;;;;5073400;28;20453;-66
2023/09/14 01:33:49;;;;;;;4.40;2.83;;;;;;;;;;5072444;28;20937;-66
2023/09/14 01:36:19;;;;;;;4.60;2.80;;;;;;;;;;5072882;28;20438;-66
2023/09/14 01:38:47;;;;;;;3.80;2.30;;;;;;;;;;5072868;28;20437;-66
2023/09/14 01:41:14;;;;;;;4.63;2.87;;;;;;;;;;5059075;28;20845;-66
2023/09/14 01:43:45;;;;;;;2.87;2.37;;;;;;;;;;5073278;28;20441;-65
2023/09/14 01:46:12;;;;;;;4.07;2.33;;;;;;;;;;5073456;28;20445;-65
2023/09/14 01:48:39;;;;;;;4.97;2.77;;;;;;;;;;5073332;28;20450;-65
2023/09/14 01:51:06;;;;;;;6.53;2.60;;;;;;;;;;5072563;28;20445;-65
2023/09/14 01:53:33;;;;;;;4.40;2.40;;;;;;;;;;5073346;28;20452;-66
2023/09/14 01:56:00;;;;;;;4.60;2.60;;;;;;;;;;5072552;28;20449;-66
2023/09/14 01:58:28;;;;;;;5.20;2.97;;;;;;;;;;5072425;28;20456;-66
2023/09/14 02:00:57;;;;;;;5.80;3.00;;;;;;;;;;5072995;28;20445;-66
2023/09/14 02:03:24;;;;;;;4.70;2.90;;;;;;;;;;5072698;28;20472;-66
2023/09/14 02:05:57;;;;;;;4.27;2.63;;;;;;;;;;5072640;28;20508;-66
2023/09/14 02:08:25;;;;;;;4.17;3.27;;;;;;;;;;5072409;28;20453;-66
2023/09/14 02:10:52;;;;;;;4.73;3.00;;;;;;;;;;5073065;28;20452;-66
2023/09/14 02:13:19;;;;;;;5.73;2.40;;;;;;;;;;5072849;28;20470;-66
2023/09/14 02:15:46;;;;;;;4.17;2.57;;;;;;;;;;5072053;28;20442;-67
2023/09/14 02:18:14;;;;;;;4.77;2.87;;;;;;;;;;5071964;28;20986;-65
2023/09/14 02:20:41;;;;;;;5.50;3.00;;;;;;;;;;5072740;28;20449;-66
2023/09/14 02:23:09;;;;;;;3.73;3.13;;;;;;;;;;5072623;28;20457;-65
2023/09/14 02:25:36;;;;;;;4.00;2.60;;;;;;;;;;5071338;28;20502;-65
2023/09/14 02:28:03;;;;;;;2.53;1.60;;;;;;;;;;5072688;28;20438;-65
2023/09/14 02:30:31;;;;;;;3.40;2.03;;;;;;;;;;5072513;28;20491;-65
2023/09/14 02:32:58;;;;;;;3.80;2.43;;;;;;;;;;5071503;28;20462;-65
2023/09/14 02:35:26;;;;;;;5.63;2.83;;;;;;;;;;5072071;28;20445;-65
2023/09/14 02:37:53;;;;;;;3.00;2.27;;;;;;;;;;5072488;28;20498;-66
2023/09/14 02:40:21;;;;;;;6.23;2.23;;;;;;;;;;5072309;28;20445;-65
2023/09/14 02:42:48;;;;;;;3.73;1.97;;;;;;;;;;5072113;28;20514;-65
2023/09/14 02:45:15;;;;;;;4.30;2.60;;;;;;;;;;5071370;28;20487;-65
2023/09/14 02:47:42;;;;;;;4.20;2.60;;;;;;;;;;5070846;28;20491;-65
2023/09/14 02:50:09;;;;;;;2.97;1.97;;;;;;;;;;5072031;28;20446;-66
2023/09/14 02:52:37;;;;;;;4.10;2.20;;;;;;;;;;5071935;28;20465;-66
2023/09/14 02:55:04;;;;;;;2.83;1.70;;;;;;;;;;5071342;28;20433;-66
2023/09/14 02:57:32;;;;;;;3.27;1.80;;;;;;;;;;5071974;28;20456;-66
2023/09/14 02:59:59;;;;;;;3.80;2.60;;;;;;;;;;5071548;28;20477;-66
2023/09/14 03:02:26;;;;;;;4.53;1.83;;;;;;;;;;5071015;28;20467;-66
2023/09/14 03:04:53;;;;;;;3.20;2.20;;;;;;;;;;5071641;28;20606;-66
2023/09/14 03:07:20;;;;;;;3.47;2.27;;;;;;;;;;5065249;28;20952;-66
2023/09/14 03:09:49;;;;;;;7.17;2.80;;;;;;;;;;5064130;28;20499;-66
2023/09/14 03:12:16;;;;;;;2.57;1.83;;;;;;;;;;5071164;28;20466;-66
2023/09/14 03:14:43;;;;;;;2.53;1.67;;;;;;;;;;5071588;28;20493;-66
2023/09/14 03:17:10;;;;;;;2.60;1.83;;;;;;;;;;5071509;28;20452;-66
2023/09/14 03:19:37;;;;;;;3.17;1.17;;;;;;;;;;5070442;28;20445;-64
2023/09/14 03:22:04;;;;;;;3.77;2.03;;;;;;;;;;5071539;28;20469;-66
2023/09/14 03:24:31;;;;;;;2.80;1.77;;;;;;;;;;5070804;28;20469;-65
2023/09/14 03:27:00;;;;;;;3.30;1.87;;;;;;;;;;5070880;28;20449;-65
2023/09/14 03:29:27;;;;;;;3.87;2.90;;;;;;;;;;5070884;28;20932;-66
2023/09/14 03:31:54;;;;;;;2.40;1.50;;;;;;;;;;5071076;28;20473;-65
2023/09/14 03:34:21;;;;;;;3.63;2.53;;;;;;;;;;5071388;28;20445;-65
2023/09/14 03:36:49;;;;;;;3.03;1.87;;;;;;;;;;5070764;28;20797;-64
2023/09/14 03:39:16;;;;;;;4.07;2.60;;;;;;;;;;5070929;28;20444;-65
2023/09/14 03:41:44;;;;;;;3.23;2.20;;;;;;;;;;5070482;28;20570;-66
2023/09/14 03:44:13;;;;;;;4.17;1.97;;;;;;;;;;5070610;28;20437;-66
2023/09/14 03:46:40;;;;;;;3.33;2.00;;;;;;;;;;5057816;28;20441;-66
2023/09/14 03:49:07;;;;;;;4.23;2.10;;;;;;;;;;5070862;28;20444;-65
2023/09/14 03:51:35;;;;;;;3.43;1.70;;;;;;;;;;5071148;28;20500;-66
2023/09/14 03:54:02;;;;;;;3.30;1.83;;;;;;;;;;5070924;28;20442;-65
2023/09/14 03:56:29;;;;;;;3.23;2.40;;;;;;;;;;5070671;28;20440;-66
2023/09/14 03:58:56;;;;;;;3.00;1.40;;;;;;;;;;5069854;28;20457;-65
2023/09/14 04:01:25;;;;;;;2.27;1.27;;;;;;;;;;5070689;28;20488;-65
2023/09/14 04:03:52;;;;;;;3.23;2.00;;;;;;;;;;5067966;28;20956;-66
2023/09/14 04:06:19;;;;;;;3.00;1.60;;;;;;;;;;5064043;28;20477;-67
2023/09/14 04:08:46;;;;;;;2.27;1.27;;;;;;;;;;5071096;28;20438;-65
2023/09/14 04:11:13;;;;;;;3.20;1.83;;;;;;;;;;5070579;28;20927;-64
2023/09/14 04:13:40;;;;;;;3.33;1.70;;;;;;;;;;5070069;28;20942;-66
2023/09/14 04:16:07;;;;;;;3.40;1.83;;;;;;;;;;5071035;28;20433;-66
2023/09/14 04:18:38;;;;;;;3.80;1.93;;;;;;;;;;5069644;28;20446;-66
2023/09/14 04:21:05;;;;;;;3.67;2.07;;;;;;;;;;5070712;28;20916;-66
2023/09/14 04:23:32;;;;;;;5.07;2.10;;;;;;;;;;5070892;28;20452;-66
2023/09/14 04:26:00;;;;;;;2.90;2.00;;;;;;;;;;5070378;28;20480;-66
2023/09/14 04:28:27;;;;;;;2.70;1.57;;;;;;;;;;5070208;28;20445;-66
2023/09/14 04:30:54;;;;;;;4.07;2.60;;;;;;;;;;5070628;28;20503;-66
2023/09/14 04:33:21;;;;;;;2.10;1.30;;;;;;;;;;5070653;28;20862;-66
2023/09/14 04:35:50;;;;;;;2.60;1.63;;;;;;;;;;5069745;28;20458;-66
2023/09/14 04:38:17;;;;;;;3.37;1.60;;;;;;;;;;5070059;28;20453;-66
2023/09/14 04:40:47;;;;;;;2.70;2.10;;;;;;;;;;5070443;28;20461;-66
2023/09/14 04:43:15;;;;;;;3.73;2.23;;;;;;;;;;5070362;28;20461;-64
2023/09/14 04:45:42;;;;;;;2.77;1.47;;;;;;;;;;5070156;28;20534;-62
2023/09/14 04:48:10;;;;;;;3.37;2.00;;;;;;;;;;5069944;28;20445;-63
2023/09/14 04:50:37;;;;;;;2.40;1.40;;;;;;;;;;5070291;28;20487;-62
2023/09/14 04:53:05;;;;;;;2.77;1.70;;;;;;;;;;5069392;28;20548;-63
2023/09/14 04:55:32;;;;;;;4.37;2.43;;;;;;;;;;5069779;28;20888;-61
2023/09/14 04:57:59;;;;;;;3.90;2.23;;;;;;;;;;5070387;28;20453;-63
2023/09/14 05:00:26;;;;;;;3.27;2.13;;;;;;;;;;5070289;28;20448;-63
2023/09/14 05:02:54;;;;;;;3.03;2.20;;;;;;;;;;5070227;28;20837;-62
2023/09/14 05:05:21;;;;;;;2.93;1.73;;;;;;;;;;5069644;28;20480;-63
2023/09/14 05:07:48;;;;;;;4.33;2.70;;;;;;;;;;5069970;28;20445;-62
2023/09/14 05:10:16;;;;;;;2.53;1.40;;;;;;;;;;5071809;28;20445;-62
2023/09/14 05:12:43;;;;;;;3.60;1.93;;;;;;;;;;5072506;28;20461;-63
2023/09/14 05:15:11;;;;;;;3.63;1.90;;;;;;;;;;5073330;28;20437;-62
2023/09/14 05:17:38;;;;;;;7.10;2.10;;;;;;;;;;5073614;28;20449;-62
2023/09/14 05:20:08;;;;;;;3.90;2.07;;;;;;;;;;5073624;28;20445;-63
2023/09/14 05:22:37;;;;;;;3.10;2.20;;;;;;;;;;5073387;28;20469;-63
2023/09/14 05:25:05;;;;;;;4.67;2.20;;;;;;;;;;5073100;28;20509;-63
2023/09/14 05:27:37;;;;;;;4.47;2.10;;;;;;;;;;5073109;28;20446;-63
2023/09/14 05:30:04;;;;;;;4.07;2.20;;;;;;;;;;5072931;28;20449;-63
2023/09/14 05:32:31;;;;;;;3.23;2.13;;;;;;;;;;5073272;28;20814;-62
2023/09/14 05:34:58;;;;;;;4.43;2.07;;;;;;;;;;5072879;28;20453;-61
2023/09/14 05:37:25;;;;;;;3.57;1.83;;;;;;;;;;5073559;28;20449;-62
2023/09/14 05:39:52;;;;;;;5.23;2.60;;;;;;;;;;5073542;28;20452;-63
2023/09/14 05:42:19;;;;;;;5.30;2.40;;;;;;;;;;5072531;28;20485;-63
2023/09/14 05:44:48;;;;;;;5.37;2.60;;;;;;;;;;5071970;28;20502;-61
2023/09/14 05:47:15;;;;;;;2.90;1.60;;;;;;;;;;5072636;28;20448;-63
2023/09/14 05:49:42;;;;;;;4.10;2.33;;;;;;;;;;5072401;28;20932;-62
2023/09/14 05:52:09;;;;;;;3.20;2.13;;;;;;;;;;5073365;28;20988;-61
2023/09/14 05:54:37;;;;;;;3.67;2.37;;;;;;;;;;5073237;28;20452;-63
2023/09/14 05:57:04;;;;;;;3.17;1.80;;;;;;;;;;5072981;28;20472;-63
2023/09/14 05:59:31;;;;;;;4.50;2.73;;;;;;;;;;5054022;28;20461;-63
2023/09/14 06:02:00;;;;;;;4.00;2.40;;;;;;;;;;5060936;28;20473;-63
2023/09/14 06:04:27;;;;;;;4.70;2.47;;;;;;;;;;5072103;28;20476;-63
2023/09/14 06:06:54;;;;;;;3.33;2.40;;;;;;;;;;5072168;28;20488;-62
2023/09/14 06:09:21;;;;;;;5.97;3.03;;;;;;;;;;5072914;28;20441;-62
2023/09/14 06:11:48;;;;;;;5.03;2.93;;;;;;;;;;5072842;28;20465;-62
2023/09/14 06:14:15;;;;;;;4.33;2.20;;;;;;;;;;5072511;28;20825;-62
2023/09/14 06:16:42;;;;;;;4.73;3.20;;;;;;;;;;5071707;28;20438;-63
2023/09/14 06:19:10;;;;;;;7.17;2.50;;;;;;;;;;5058893;28;20441;-63
2023/09/14 06:21:38;;;;;;;5.10;2.70;;;;;;;;;;5053770;28;20457;-63
2023/09/14 06:24:05;;;;;;;4.33;2.70;;;;;;;;;;5072669;28;20445;-62
2023/09/14 06:26:32;;;;;;;5.60;2.70;;;;;;;;;;5071626;28;20480;-62
2023/09/14 06:29:00;;;;;;;5.53;3.13;;;;;;;;;;5071706;28;20449;-62
2023/09/14 06:31:28;;;;;;;5.90;3.40;;;;;;;;;;5065582;28;20821;-62
2023/09/14 06:33:55;;;;;;;4.40;3.30;;;;;;;;;;5072347;28;20446;-62
2023/09/14 06:36:23;;;;;;;5.03;3.10;;;;;;;;;;5071309;28;20438;-62
2023/09/14 06:38:50;;;;;;;4.23;2.50;;;;;;;;;;5071546;28;20946;-62
2023/09/14 06:41:17;;;;;;;5.83;3.47;;;;;;;;;;5072026;28;20507;-62
2023/09/14 06:43:45;;;;;;;6.20;2.77;;;;;;;;;;5072003;28;20449;-63
2023/09/14 06:46:12;;;;;;;4.30;2.37;;;;;;;;;;5071286;28;20473;-63
2023/09/14 06:48:40;;;;;;;6.17;3.80;;;;;;;;;;5072658;28;20457;-61
2023/09/14 06:51:07;;;;;;;3.30;1.80;;;;;;;;;;5072311;28;20956;-63
2023/09/14 06:53:35;;;;;;;4.43;2.13;;;;;;;;;;5071174;28;20453;-61
2023/09/14 06:56:06;;;;;;;3.43;1.90;;;;;;;;;;5071897;28;20434;-62
2023/09/14 06:58:33;;;;;;;5.67;2.73;;;;;;;;;;5071563;28;20457;-62
2023/09/14 07:01:04;;;;;;;3.70;2.40;;;;;;;;;;5072037;28;20711;-61
2023/09/14 07:03:32;;;;;;;4.20;3.07;;;;;;;;;;5071619;28;20442;-63
2023/09/14 07:06:00;;;;;;;6.30;3.57;;;;;;;;;;5059502;28;20473;-63
2023/09/14 07:08:27;;;;;;;3.47;2.27;;;;;;;;;;5071628;28;20441;-63
2023/09/14 07:10:57;;;;;;;5.47;2.67;;;;;;;;;;5070324;28;20445;-63
2023/09/14 07:13:25;;;;;;;3.83;1.83;;;;;;;;;;5071368;28;20461;-63
2023/09/14 07:15:52;;;;;;;3.60;2.23;;;;;;;;;;5071622;28;20429;-63
2023/09/14 07:18:27;;;;;;;4.40;2.57;;;;;;;;;;5071417;28;20477;-63
2023/09/14 07:20:54;;;;;;;3.67;2.37;;;;;;;;;;5070198;28;20468;-63
2023/09/14 07:23:21;;;;;;;4.20;2.87;;;;;;;;;;5070745;28;20551;-63
2023/09/14 07:25:49;;;;;;;4.77;2.90;;;;;;;;;;5070942;28;20485;-62
2023/09/14 07:28:18;;;;;;;5.20;3.13;;;;;;;;;;5070521;28;20452;-62
2023/09/14 07:30:45;;;;;;;5.30;2.30;;;;;;;;;;5070474;28;20441;-62
2023/09/14 07:33:12;;;;;;;4.20;2.50;;;;;;;;;;5070272;28;20541;-63
2023/09/14 07:35:40;;;;;;;4.50;2.60;;;;;;;;;;5071053;28;20445;-62
2023/09/14 07:38:08;;;;;;;4.67;3.33;;;;;;;;;;5071174;28;20469;-62
2023/09/14 07:40:36;;;;;;;5.50;2.80;;;;;;;;;;5070633;28;20445;-63
2023/09/14 07:43:03;;;;;;;4.30;2.70;;;;;;;;;;5070591;28;20461;-62
2023/09/14 07:45:33;;;;;;;5.87;2.93;;;;;;;;;;5060930;28;20432;-62
2023/09/14 07:48:00;;;;;;;7.17;2.90;;;;;;;;;;5071230;28;20445;-62
2023/09/14 07:50:27;;;;;;;5.53;2.80;;;;;;;;;;5070132;28;20445;-63
2023/09/14 07:52:54;;;;;;;7.40;3.63;;;;;;;;;;5070819;28;20840;-63
2023/09/14 07:55:21;;;;;;;4.90;3.40;;;;;;;;;;5070782;28;20444;-63
2023/09/14 07:57:48;;;;;;;5.73;3.27;;;;;;;;;;5070350;28;20441;-63
2023/09/14 08:00:16;;;;;;;5.23;3.10;;;;;;;;;;5070390;28;20492;-62
2023/09/14 08:02:44;;;;;;;4.70;2.97;;;;;;;;;;5070889;28;20469;-63
2023/09/14 08:05:11;;;;;;;6.30;3.90;;;;;;;;;;5070886;28;20590;-63
2023/09/14 08:07:38;;;;;;;4.27;2.77;;;;;;;;;;5069927;28;20481;-63
2023/09/14 08:10:05;;;;;;;7.67;3.60;;;;;;;;;;5071337;28;20445;-64
2023/09/14 08:12:33;;;;;;;4.57;2.77;;;;;;;;;;5064817;28;20476;-62
2023/09/14 08:15:00;;;;;;;6.10;3.17;;;;;;;;;;5070883;28;20437;-63
2023/09/14 08:17:27;;;;;;;4.80;3.87;;;;;;;;;;5070311;28;20456;-62
2023/09/14 08:19:55;;;;;;;6.13;3.87;;;;;;;;;;5070126;28;20448;-62
2023/09/14 08:22:23;;;;;;;4.57;2.57;;;;;;;;;;5071050;28;20578;-63
2023/09/14 08:24:50;;;;;;;5.97;2.80;;;;;;;;;;5070812;28;20860;-61
2023/09/14 08:27:17;;;;;;;3.97;2.50;;;;;;;;;;5070721;28;20875;-61
2023/09/14 08:29:44;;;;;;;4.67;3.20;;;;;;;;;;5071709;28;20911;-62
2023/09/14 08:32:12;;;;;;;4.70;2.97;;;;;;;;;;5071578;28;20916;-61
2023/09/14 08:34:39;;;;;;;3.20;2.13;;;;;;;;;;5070494;28;20468;-63
2023/09/14 08:39:43;;;;;;;6.53;3.00;;;;;;;;;;5458491;22;20521;-63
2023/09/14 08:42:10;;;;;;;5.03;2.30;;;;;;;;;;5050144;28;20449;-62
2023/09/14 08:44:39;;;;;;;6.47;4.27;;;;;;;;;;5051651;28;20438;-63
2023/09/14 08:47:06;;;;;;;5.30;3.30;;;;;;;;;;5060630;28;20484;-63
2023/09/14 08:49:34;;;;;;;5.50;2.87;;;;;;;;;;5060837;28;20465;-63
2023/09/14 08:52:02;;;;;;;5.70;2.87;;;;;;;;;;5053831;28;20446;-62
2023/09/14 08:54:30;;;;;;;5.87;3.20;;;;;;;;;;5056809;28;20445;-63
2023/09/14 08:56:58;;;;;;;4.70;2.37;;;;;;;;;;5057934;28;20462;-62
2023/09/14 08:59:25;;;;;;;3.83;2.47;;;;;;;;;;5054040;28;21013;-63
2023/09/14 09:01:53;;;;;;;5.13;3.03;;;;;;;;;;5047993;28;20817;-63
2023/09/14 09:04:20;;;;;;;3.07;2.20;;;;;;;;;;5052161;28;20437;-62
2023/09/14 09:06:48;;;;;;;4.90;2.73;;;;;;;;;;5055682;28;20481;-62
2023/09/14 09:09:16;;;;;;;4.00;2.90;;;;;;;;;;5058265;28;20986;-63
2023/09/14 09:11:43;;;;;;;5.30;3.00;;;;;;;;;;5060023;28;20455;-63
2023/09/14 09:14:12;;;;;;;5.00;2.60;;;;;;;;;;5055520;28;20449;-63
2023/09/14 09:16:39;;;;;;;5.47;2.60;;;;;;;;;;5064902;28;20796;-63
2023/09/14 09:19:07;;;;;;;5.00;2.70;;;;;;;;;;5054388;28;20880;-62
2023/09/14 09:21:35;;;;;;;4.83;2.63;;;;;;;;;;5053988;28;20636;-62
2023/09/14 09:24:04;;;;;;;4.33;2.57;;;;;;;;;;5053686;28;20449;-62
2023/09/14 09:26:36;;;;;;;4.47;3.10;;;;;;;;;;5047729;28;20483;-61
2023/09/14 09:29:13;;;;;;;4.53;3.10;;;;;;;;;;5059183;28;20589;-63
2023/09/14 09:31:43;;;;;;;4.80;2.13;;;;;;;;;;5053865;28;20445;-62
2023/09/14 09:34:10;;;;;;;5.50;3.07;;;;;;;;;;5053324;28;20958;-63
2023/09/14 09:36:37;;;;;;;5.10;2.53;;;;;;;;;;5061118;28;20536;-63
2023/09/14 09:39:05;;;;;;;3.10;2.10;;;;;;;;;;5053402;28;20494;-62
2023/09/14 09:41:33;;;;;;;3.37;2.20;;;;;;;;;;5053422;28;20549;-62
2023/09/14 09:44:00;;;;;;;3.50;2.73;;;;;;;;;;5056869;28;20433;-62
2023/09/14 09:46:27;;;;;;;5.50;3.97;;;;;;;;;;5061657;28;20859;-63
2023/09/14 09:48:55;;;;;;;3.73;2.80;;;;;;;;;;5056128;28;20461;-63
2023/09/14 09:51:24;;;;;;;3.50;2.30;;;;;;;;;;5052381;28;20449;-63
2023/09/14 09:54:04;;;;;;;4.67;2.63;;;;;;;;;;5053222;28;20500;-63
2023/09/14 09:56:31;;;;;;;3.23;2.10;;;;;;;;;;5061307;28;20880;-62
2023/09/14 09:59:02;;;;;;;6.93;2.30;;;;;;;;;;5055482;28;20469;-63
2023/09/14 10:01:29;;;;;;;3.37;2.40;;;;;;;;;;5053070;28;20477;-63
2023/09/14 10:03:59;;;;;;;7.20;2.20;;;;;;;;;;5052872;28;20513;-63
2023/09/14 10:06:26;;;;;;;3.67;2.33;;;;;;;;;;5057339;28;20466;-63
2023/09/14 10:08:54;;;;;;;5.93;2.30;;;;;;;;;;5052042;28;20631;-63
2023/09/14 10:11:23;;;;;;;5.00;2.60;;;;;;;;;;5045079;28;20486;-63
2023/09/14 10:13:51;;;;;;;3.50;2.30;;;;;;;;;;5053256;28;20879;-63
2023/09/14 10:16:19;;;;;;;3.57;2.30;;;;;;;;;;5059008;28;20477;-63
2023/09/14 10:18:47;;;;;;;3.90;2.30;;;;;;;;;;5061198;28;21002;-62
2023/09/14 10:21:16;;;;;;;3.40;1.90;;;;;;;;;;5052907;28;20442;-63
2023/09/14 10:23:44;;;;;;;2.60;1.90;;;;;;;;;;5052187;28;20512;-63
2023/09/14 10:26:11;;;;;;;4.50;2.20;;;;;;;;;;5052293;28;20435;-63
2023/09/14 10:28:39;;;;;;;6.27;2.53;;;;;;;;;;5051947;28;20940;-63
2023/09/14 10:31:06;;;;;;;3.27;2.03;;;;;;;;;;5052841;28;20446;-62
2023/09/14 10:33:34;;;;;;;3.70;2.10;;;;;;;;;;5045836;28;20791;-63
2023/09/14 10:36:02;;;;;;;2.90;1.90;;;;;;;;;;5056820;28;20465;-63
2023/09/14 10:38:34;;;;;;;2.60;1.83;;;;;;;;;;5058802;28;20462;-63
2023/09/14 10:41:01;;;;;;;10.23;2.10;;;;;;;;;;5052314;28;20883;-62
2023/09/14 10:43:29;;;;;;;5.17;2.27;;;;;;;;;;5051893;28;20449;-62
2023/09/14 10:46:00;;;;;;;5.90;2.20;;;;;;;;;;5055558;28;20445;-63
2023/09/14 10:48:29;;;;;;;3.50;2.30;;;;;;;;;;5062338;28;20480;-64
2023/09/14 10:50:56;;;;;;;5.00;2.10;;;;;;;;;;5052480;28;20464;-63
2023/09/14 10:53:23;;;;;;;3.53;2.10;;;;;;;;;;5052640;28;20443;-63
2023/09/14 10:55:52;;;;;;;4.70;2.20;;;;;;;;;;5054859;28;20450;-63
2023/09/14 10:58:19;;;;;;;3.43;2.37;;;;;;;;;;5057939;28;20438;-63
2023/09/14 11:00:56;;;;;;;3.50;2.10;;;;;;;;;;5051821;28;20488;-63
2023/09/14 11:03:25;;;;;;;3.97;1.90;;;;;;;;;;5064789;28;20433;-63
2023/09/14 11:05:52;;;;;;;3.13;2.30;;;;;;;;;;5063883;28;20495;-63
2023/09/14 11:08:19;;;;;;;4.07;1.87;;;;;;;;;;5054836;28;20516;-63
2023/09/14 11:10:58;;;;;;;3.40;2.50;;;;;;;;;;5052047;28;20438;-62
2023/09/14 11:13:28;;;;;;;2.93;1.60;;;;;;;;;;5051895;28;20477;-63
2023/09/14 11:15:56;;;;;;;3.20;1.93;;;;;;;;;;5054763;28;20938;-63
2023/09/14 11:18:34;;;;;;;3.00;1.93;;;;;;;;;;5055314;28;20474;-63
2023/09/14 11:21:02;;;;;;;2.33;1.67;;;;;;;;;;5048412;28;20442;-63
2023/09/14 11:23:34;;;;;;;3.60;2.10;;;;;;;;;;5051204;28;20854;-63
2023/09/14 11:26:03;;;;;;;5.23;1.90;;;;;;;;;;5055061;28;20798;-63
2023/09/14 11:28:31;;;;;;;5.23;2.57;;;;;;;;;;5051689;28;20968;-64
2023/09/14 11:30:59;;;;;;;3.00;1.93;;;;;;;;;;5052155;28;20437;-64
2023/09/14 11:33:26;;;;;;;3.67;2.00;;;;;;;;;;5051475;28;20478;-62
2023/09/14 11:35:54;;;;;;;2.77;1.77;;;;;;;;;;5053424;28;20453;-62
2023/09/14 11:38:21;;;;;;;2.73;1.80;;;;;;;;;;5061030;28;20916;-63
2023/09/14 11:40:48;;;;;;;4.10;2.43;;;;;;;;;;5051511;28;20443;-64
2023/09/14 11:43:26;;;;;;;2.67;1.80;;;;;;;;;;5057796;28;20449;-63
2023/09/14 11:45:54;;;;;;;3.73;2.13;;;;;;;;;;5053900;28;20453;-64
2023/09/14 11:48:22;;;;;;;4.53;2.40;;;;;;;;;;5059621;28;20489;-64
2023/09/14 11:50:50;;;;;;;4.27;2.80;;;;;;;;;;5065281;28;20927;-62
2023/09/14 11:53:18;;;;;;;2.57;1.80;;;;;;;;;;5048362;28;20450;-64
2023/09/14 11:55:45;;;;;;;4.17;2.07;;;;;;;;;;5052121;28;20476;-64
2023/09/14 11:58:12;;;;;;;3.83;1.90;;;;;;;;;;5057388;28;20496;-63
2023/09/14 12:00:42;;;;;;;3.33;1.80;;;;;;;;;;5038402;28;20477;-64
2023/09/14 12:03:09;;;;;;;3.83;2.17;;;;;;;;;;5056411;28;20442;-63
2023/09/14 12:05:37;;;;;;;3.90;2.40;;;;;;;;;;5051005;28;20435;-63
2023/09/14 12:08:11;;;;;;;2.50;1.90;;;;;;;;;;5045482;28;20482;-62
2023/09/14 12:10:38;;;;;;;2.67;1.90;;;;;;;;;;5051265;28;20473;-63
2023/09/14 12:13:15;;;;;;;3.90;2.37;;;;;;;;;;5046480;28;20450;-63
2023/09/14 12:15:44;;;;;;;2.73;1.83;;;;;;;;;;5050992;28;20457;-63
2023/09/14 12:18:12;;;;;;;4.10;2.23;;;;;;;;;;5054864;28;20446;-63
2023/09/14 12:20:40;;;;;;;2.40;1.73;;;;;;;;;;5051303;28;20439;-64
2023/09/14 12:23:09;;;;;;;3.50;2.27;;;;;;;;;;5056804;28;20864;-63
2023/09/14 12:25:36;;;;;;;4.47;2.50;;;;;;;;;;5055337;28;20442;-63
2023/09/14 12:28:04;;;;;;;3.77;1.90;;;;;;;;;;5055576;28;20469;-63
2023/09/14 12:30:32;;;;;;;2.70;1.63;;;;;;;;;;5054744;28;20442;-63
2023/09/14 12:33:01;;;;;;;2.17;1.60;;;;;;;;;;5067412;28;20438;-63
2023/09/14 12:35:30;;;;;;;2.57;1.60;;;;;;;;;;5055176;28;20453;-63
2023/09/14 12:38:01;;;;;;;3.47;2.20;;;;;;;;;;5066775;28;20495;-63
2023/09/14 12:40:28;;;;;;;2.93;2.47;;;;;;;;;;5055108;28;20541;-63
2023/09/14 12:42:55;;;;;;;3.17;1.80;;;;;;;;;;5055043;28;20509;-63
2023/09/14 12:45:22;;;;;;;2.57;1.70;;;;;;;;;;5055680;28;20446;-63
2023/09/14 12:47:49;;;;;;;4.30;1.60;;;;;;;;;;5056591;28;20478;-63
2023/09/14 12:50:18;;;;;;;2.23;1.37;;;;;;;;;;5053485;28;20470;-63
2023/09/14 12:52:45;;;;;;;4.23;2.17;;;;;;;;;;5054715;28;20865;-63
2023/09/14 12:55:16;;;;;;;2.60;1.33;;;;;;;;;;5054532;28;20442;-63
2023/09/14 12:57:47;;;;;;;3.40;1.93;;;;;;;;;;5061625;28;20466;-63
2023/09/14 13:00:15;;;;;;;2.23;1.57;;;;;;;;;;5059535;28;20458;-62
2023/09/14 13:02:43;;;;;;;3.13;2.03;;;;;;;;;;5050569;28;20514;-63
2023/09/14 13:05:11;;;;;;;4.03;1.70;;;;;;;;;;5057603;28;20453;-63
2023/09/14 13:07:40;;;;;;;3.10;1.67;;;;;;;;;;5056078;28;21233;-63
2023/09/14 13:10:07;;;;;;;1.93;1.63;;;;;;;;;;5048902;28;20469;-63
2023/09/14 13:12:35;;;;;;;4.13;2.07;;;;;;;;;;5044931;28;20473;-64
2023/09/14 13:15:04;;;;;;;4.13;2.07;;;;;;;;;;5053558;28;20446;-64
2023/09/14 13:17:31;;;;;;;2.37;1.53;;;;;;;;;;5063244;28;20465;-63
2023/09/14 13:19:58;;;;;;;3.90;1.83;;;;;;;;;;5055695;28;20465;-63
2023/09/14 13:22:25;;;;;;;3.07;1.80;;;;;;;;;;5054223;28;20448;-62
2023/09/14 13:24:54;;;;;;;4.63;2.03;;;;;;;;;;5038130;28;20447;-63
2023/09/14 13:27:21;;;;;;;2.60;1.77;;;;;;;;;;5047522;28;20803;-63
2023/09/14 13:29:49;;;;;;;2.77;1.80;;;;;;;;;;5052968;28;20470;-64
2023/09/14 13:32:17;;;;;;;3.90;1.87;;;;;;;;;;5065910;28;20446;-65
2023/09/14 13:34:44;;;;;;;2.87;2.10;;;;;;;;;;5059766;28;20450;-64
2023/09/14 13:37:11;;;;;;;2.37;1.80;;;;;;;;;;5061451;28;20492;-64
2023/09/14 13:39:38;;;;;;;3.23;1.40;;;;;;;;;;5040157;28;20484;-64
2023/09/14 13:42:07;;;;;;;4.47;2.20;;;;;;;;;;5052940;28;20445;-64
2023/09/14 13:44:35;;;;;;;2.53;1.63;;;;;;;;;;5059940;28;20810;-62
2023/09/14 13:47:02;;;;;;;2.07;1.40;;;;;;;;;;5062506;28;20469;-62
2023/09/14 13:49:30;;;;;;;2.73;1.33;;;;;;;;;;5055875;28;20992;-63
2023/09/14 13:51:57;;;;;;;2.30;1.40;;;;;;;;;;5052857;28;20446;-63
2023/09/14 13:54:27;;;;;;;2.10;1.20;;;;;;;;;;5053515;28;20481;-63
2023/09/14 13:56:54;;;;;;;2.43;1.80;;;;;;;;;;5059911;28;20518;-67
2023/09/14 13:59:25;;;;;;;5.53;1.47;;;;;;;;;;5062236;28;20450;-66
2023/09/14 14:01:52;;;;;;;2.43;1.20;;;;;;;;;;5052830;28;20439;-66
2023/09/14 14:04:19;;;;;;;3.13;1.43;;;;;;;;;;5058387;28;20915;-65
2023/09/14 14:06:46;;;;;;;2.10;1.20;;;;;;;;;;5074072;28;20441;-64
2023/09/14 14:09:15;;;;;;;2.00;1.27;;;;;;;;;;5064741;28;20573;-65
2023/09/14 14:11:42;;;;;;;3.27;1.13;;;;;;;;;;5069010;28;20450;-66
2023/09/14 14:14:09;;;;;;;1.87;1.10;;;;;;;;;;5052522;28;21154;-66
2023/09/14 14:16:37;;;;;;;1.90;1.30;;;;;;;;;;5054555;28;20500;-66
2023/09/14 14:19:04;;;;;;;1.60;1.13;;;;;;;;;;5055007;28;20509;-69
2023/09/14 14:21:32;;;;;;;2.23;1.57;;;;;;;;;;5053073;28;20453;-66
2023/09/14 14:23:59;;;;;;;4.73;1.77;;;;;;;;;;5049502;28;20438;-66
2023/09/14 14:26:26;;;;;;;2.03;1.77;;;;;;;;;;5042191;28;20452;-66
2023/09/14 14:28:53;;;;;;;2.83;1.80;;;;;;;;;;5057044;28;20485;-66
2023/09/14 14:31:20;;;;;;;1.80;1.03;;;;;;;;;;5052897;28;20450;-66
2023/09/14 14:33:49;;;;;;;2.00;1.47;;;;;;;;;;5052724;28;20442;-66
2023/09/14 14:36:16;;;;;;;2.20;1.40;;;;;;;;;;5052376;28;20500;-67
2023/09/14 14:38:43;;;;;;;2.00;1.67;;;;;;;;;;5051531;28;20564;-66
2023/09/14 14:41:10;;;;;;;5.23;1.70;;;;;;;;;;5052838;28;20460;-66
2023/09/14 14:43:37;;;;;;;2.80;1.70;;;;;;;;;;5051411;28;20468;-66
2023/09/14 14:46:04;;;;;;;2.60;1.63;;;;;;;;;;5051398;28;20438;-66
2023/09/14 14:48:31;;;;;;;2.47;1.50;;;;;;;;;;5058720;28;20485;-66